Time;durP1;ratioP1;P1;durP2;ratioP2;P2;SDS_P1;SDS_P2;PMS_P1;PMS_P2;Temp;Humidity;BMP_temperature;BMP_pressure;BME280_temperature;BME280_humidity;BME280_pressure;Samples;Min_cycle;Max_cycle;Signal;HPM_P1;HPM_P2
2023/12/03 00:02:12;;;;;;;;;;;0.00;78.20;;;;;;5048152;28;19925;-68
2023/12/03 00:04:45;;;;;;;;;;;0.00;78.30;;;;;;5049732;28;19932;-68
2023/12/03 00:07:13;;;;;;;;;;;0.00;78.30;;;;;;5048425;28;19933;-67
2023/12/03 00:09:46;;;;;;;;;;;-3276.70;78.30;;;;;;5049127;28;19936;-68
2023/12/03 00:12:21;;;;;;;;;;;-3276.70;78.30;;;;;;5048263;28;19960;-68
2023/12/03 00:14:54;;;;;;;;;;;0.00;78.10;;;;;;5048302;28;19955;-68
2023/12/03 00:17:27;;;;;;;;;;;0.00;78.30;;;;;;5049934;28;19931;-68
2023/12/03 00:19:54;;;;;;;;;;;0.00;78.20;;;;;;5049201;28;20397;-68
2023/12/03 00:22:27;;;;;;;;;;;0.00;78.10;;;;;;5049216;28;19925;-68
2023/12/03 00:25:00;;;;;;;;;;;0.00;78.00;;;;;;5047135;28;19929;-66
2023/12/03 00:27:35;;;;;;;;;;;0.00;77.90;;;;;;5048971;28;20014;-68
2023/12/03 00:30:09;;;;;;;;;;;-3276.70;78.00;;;;;;5049511;28;19925;-66
2023/12/03 00:32:42;;;;;;;;;;;0.00;78.20;;;;;;5048338;28;19925;-67
2023/12/03 00:35:15;;;;;;;;;;;-3276.70;78.10;;;;;;5048538;28;19935;-67
2023/12/03 00:37:48;;;;;;;;;;;0.00;78.10;;;;;;5049266;28;19940;-67
2023/12/03 00:40:21;;;;;;;;;;;0.00;78.20;;;;;;5029385;28;19925;-68
2023/12/03 00:43:02;;;;;;;;;;;0.00;78.10;;;;;;5048333;28;20000;-67
2023/12/03 00:45:35;;;;;;;;;;;0.00;77.90;;;;;;5048960;28;19982;-68
2023/12/03 00:48:08;;;;;;;;;;;0.00;78.20;;;;;;5024132;28;19987;-68
2023/12/03 00:50:41;;;;;;;;;;;0.00;78.20;;;;;;5048425;28;19925;-67
2023/12/03 00:53:14;;;;;;;;;;;0.00;78.20;;;;;;5052111;28;19994;-68
2023/12/03 00:55:47;;;;;;;;;;;0.00;78.00;;;;;;5052518;28;20028;-69
2023/12/03 00:58:22;;;;;;;;;;;0.00;78.10;;;;;;5051475;28;19933;-69
2023/12/03 01:00:55;;;;;;;;;;;0.00;78.20;;;;;;5046788;28;19931;-68
2023/12/03 01:03:28;;;;;;;;;;;0.00;78.10;;;;;;5052070;28;19925;-68
2023/12/03 01:06:01;;;;;;;;;;;0.00;78.00;;;;;;5047172;28;19925;-68
2023/12/03 01:08:34;;;;;;;;;;;0.00;78.10;;;;;;5044789;28;19924;-68
2023/12/03 01:11:07;;;;;;;;;;;0.00;78.20;;;;;;5050893;28;19931;-67
2023/12/03 01:13:42;;;;;;;;;;;0.00;78.30;;;;;;5051160;28;19933;-67
2023/12/03 01:16:16;;;;;;;;;;;0.00;78.20;;;;;;5045451;28;19978;-67
2023/12/03 01:18:49;;;;;;;;;;;0.00;78.20;;;;;;5051505;28;19931;-69
2023/12/03 01:21:22;;;;;;;;;;;0.00;78.30;;;;;;5032486;28;20003;-67
2023/12/03 01:23:55;;;;;;;;;;;0.00;78.30;;;;;;5050626;28;19931;-67
2023/12/03 01:26:28;;;;;;;;;;;0.00;78.30;;;;;;5051053;28;19947;-68
2023/12/03 01:29:03;;;;;;;;;;;0.00;78.10;;;;;;5049619;28;20280;-68
2023/12/03 01:31:37;;;;;;;;;;;0.00;78.20;;;;;;5050405;28;19978;-67
2023/12/03 01:34:10;;;;;;;;;;;-3276.70;78.10;;;;;;5042339;28;19925;-69
2023/12/03 01:36:43;;;;;;;;;;;-3276.70;78.10;;;;;;5051549;28;19924;-68
2023/12/03 01:39:16;;;;;;;;;;;0.00;78.30;;;;;;5049360;28;19956;-68
2023/12/03 01:41:43;;;;;;;;;;;0.00;78.20;;;;;;5051328;28;19926;-63
2023/12/03 01:44:18;;;;;;;;;;;0.00;78.20;;;;;;5048919;28;20028;-65
2023/12/03 01:46:45;;;;;;;;;;;-3276.70;78.10;;;;;;5050426;28;19968;-63
2023/12/03 01:49:18;;;;;;;;;;;0.00;78.20;;;;;;5049225;28;19925;-63
2023/12/03 01:51:51;;;;;;;;;;;0.00;78.30;;;;;;5051021;28;19929;-65
2023/12/03 01:54:27;;;;;;;;;;;0.00;78.10;;;;;;5051117;28;20036;-63
2023/12/03 01:57:00;;;;;;;;;;;0.00;78.20;;;;;;5050592;28;19925;-65
2023/12/03 01:59:35;;;;;;;;;;;-3276.70;78.10;;;;;;5049090;28;19929;-64
2023/12/03 02:02:08;;;;;;;;;;;0.00;78.20;;;;;;5049391;28;19951;-64
2023/12/03 02:04:41;;;;;;;;;;;0.00;78.00;;;;;;5049756;28;19933;-64
2023/12/03 02:07:08;;;;;;;;;;;0.00;78.00;;;;;;5050177;28;19979;-65
2023/12/03 02:09:41;;;;;;;;;;;0.00;78.10;;;;;;5050648;28;19933;-64
2023/12/03 02:12:15;;;;;;;;;;;0.00;78.10;;;;;;5050377;28;19933;-65
2023/12/03 02:14:50;;;;;;;;;;;-3276.70;77.90;;;;;;5048010;28;20380;-63
2023/12/03 02:17:23;;;;;;;;;;;0.00;78.00;;;;;;5050130;28;19970;-64
2023/12/03 02:19:50;;;;;;;;;;;0.00;77.90;;;;;;5048801;28;19932;-64
2023/12/03 02:22:23;;;;;;;;;;;0.00;78.00;;;;;;5048974;28;19932;-65
2023/12/03 02:24:58;;;;;;;;;;;-3276.70;78.00;;;;;;5046688;28;19929;-65
2023/12/03 02:27:31;;;;;;;;;;;-3276.70;77.90;;;;;;5050598;28;19965;-66
2023/12/03 02:30:05;;;;;;;;;;;-3276.70;78.00;;;;;;5046723;28;19960;-65
2023/12/03 02:32:38;;;;;;;;;;;-3276.70;78.10;;;;;;5048313;28;20019;-66
2023/12/03 02:35:11;;;;;;;;;;;-3276.70;77.90;;;;;;5048799;28;19933;-65
2023/12/03 02:37:44;;;;;;;;;;;-3276.70;78.00;;;;;;5048740;28;19936;-65
2023/12/03 02:40:19;;;;;;;;;;;-3276.70;78.00;;;;;;5047270;28;20012;-65
2023/12/03 02:42:52;;;;;;;;;;;-3276.70;77.90;;;;;;5049183;28;19935;-68
2023/12/03 02:45:25;;;;;;;;;;;-3276.70;78.10;;;;;;5044899;28;19925;-64
2023/12/03 02:47:58;;;;;;;;;;;0.00;78.10;;;;;;5049965;28;19925;-65
2023/12/03 02:50:31;;;;;;;;;;;0.00;78.00;;;;;;5049813;28;19935;-67
2023/12/03 02:53:04;;;;;;;;;;;-3276.70;78.00;;;;;;5049487;28;19940;-67
2023/12/03 02:55:39;;;;;;;;;;;-3276.70;78.10;;;;;;5050508;28;20019;-69
2023/12/03 02:58:15;;;;;;;;;;;-3276.70;78.10;;;;;;5046502;28;19963;-67
2023/12/03 03:00:48;;;;;;;;;;;-3276.70;77.90;;;;;;5046206;28;20027;-68
2023/12/03 03:03:21;;;;;;;;;;;-3276.70;78.00;;;;;;5044985;28;19932;-68
2023/12/03 03:05:54;;;;;;;;;;;-3276.70;78.20;;;;;;5049603;28;19968;-66
2023/12/03 03:08:27;;;;;;;;;;;0.00;78.00;;;;;;5049606;28;19925;-68
2023/12/03 03:11:02;;;;;;;;;;;-3276.70;77.80;;;;;;5048671;28;19982;-68
2023/12/03 03:13:35;;;;;;;;;;;-3276.70;77.80;;;;;;5049769;28;19936;-68
2023/12/03 03:16:10;;;;;;;;;;;-3276.70;77.80;;;;;;5047485;28;19932;-67
2023/12/03 03:18:43;;;;;;;;;;;-3276.60;77.60;;;;;;5048484;28;19925;-67
2023/12/03 03:21:16;;;;;;;;;;;-3276.60;77.90;;;;;;5049564;28;19924;-68
2023/12/03 03:23:49;;;;;;;;;;;-3276.60;78.00;;;;;;5042053;28;19924;-68
2023/12/03 03:26:24;;;;;;;;;;;-3276.70;78.10;;;;;;5047496;28;19931;-69
2023/12/03 03:28:57;;;;;;;;;;;-3276.60;78.10;;;;;;5047817;28;20027;-68
2023/12/03 03:31:30;;;;;;;;;;;-3276.70;78.30;;;;;;5040281;28;20011;-67
2023/12/03 03:34:03;;;;;;;;;;;-3276.60;78.20;;;;;;5047508;28;19928;-68
2023/12/03 03:36:36;;;;;;;;;;;-3276.70;78.30;;;;;;5050822;28;19929;-68
2023/12/03 03:39:09;;;;;;;;;;;-3276.70;78.20;;;;;;5046636;28;19935;-68
2023/12/03 03:41:44;;;;;;;;;;;-3276.70;78.10;;;;;;5028341;28;20310;-69
2023/12/03 03:44:17;;;;;;;;;;;-3276.60;78.20;;;;;;5039753;28;19931;-67
2023/12/03 03:46:51;;;;;;;;;;;-3276.60;78.20;;;;;;5043559;28;19933;-66
2023/12/03 03:49:23;;;;;;;;;;;-3276.60;78.20;;;;;;5045847;28;20027;-68
2023/12/03 03:51:56;;;;;;;;;;;-3276.70;78.20;;;;;;5045729;28;20332;-69
2023/12/03 03:54:29;;;;;;;;;;;-3276.70;78.20;;;;;;5043915;28;19935;-68
2023/12/03 03:57:04;;;;;;;;;;;-3276.70;78.10;;;;;;5041270;28;25237;-67
2023/12/03 03:59:37;;;;;;;;;;;-3276.70;78.00;;;;;;5047666;28;19929;-66
2023/12/03 04:02:10;;;;;;;;;;;-3276.60;78.00;;;;;;5043670;28;19932;-73
2023/12/03 04:04:44;;;;;;;;;;;-3276.60;78.00;;;;;;5046419;28;19936;-72
2023/12/03 04:07:17;;;;;;;;;;;-3276.60;78.20;;;;;;5048301;28;19931;-73
2023/12/03 04:09:50;;;;;;;;;;;-3276.60;78.20;;;;;;5048628;28;19947;-73
2023/12/03 04:12:25;;;;;;;;;;;-3276.60;78.30;;;;;;5029895;28;19925;-73
2023/12/03 04:14:58;;;;;;;;;;;-3276.60;78.50;;;;;;5047331;28;19932;-71
2023/12/03 04:17:25;;;;;;;;;;;-3276.70;78.30;;;;;;5045384;28;19933;-73
2023/12/03 04:20:01;;;;;;;;;;;-3276.70;78.20;;;;;;5044786;28;19970;-71
2023/12/03 04:22:35;;;;;;;;;;;-3276.70;78.10;;;;;;5039080;28;19933;-73
2023/12/03 04:25:08;;;;;;;;;;;-3276.70;78.20;;;;;;5027490;28;20359;-71
2023/12/03 04:27:43;;;;;;;;;;;-3276.60;78.40;;;;;;5025223;28;20337;-73
2023/12/03 04:30:16;;;;;;;;;;;-3276.70;78.40;;;;;;5050687;28;20020;-73
2023/12/03 04:32:49;;;;;;;;;;;-3276.70;78.20;;;;;;5050098;28;19925;-71
2023/12/03 04:35:22;;;;;;;;;;;-3276.60;78.40;;;;;;5051493;28;19925;-71
2023/12/03 04:37:55;;;;;;;;;;;-3276.60;78.20;;;;;;5050474;28;19925;-71
2023/12/03 04:40:28;;;;;;;;;;;-3276.60;78.10;;;;;;5048157;28;20318;-72
2023/12/03 04:43:03;;;;;;;;;;;-3276.60;78.00;;;;;;5049402;28;19986;-72
2023/12/03 04:45:36;;;;;;;;;;;-3276.60;78.20;;;;;;5051025;28;20388;-71
2023/12/03 04:48:09;;;;;;;;;;;-3276.60;78.10;;;;;;5052035;28;19933;-73
2023/12/03 04:50:42;;;;;;;;;;;-3276.60;78.20;;;;;;5052337;28;19937;-71
2023/12/03 04:53:22;;;;;;;;;;;-3276.60;78.20;;;;;;5050801;28;20028;-72
2023/12/03 04:55:55;;;;;;;;;;;-3276.60;78.30;;;;;;5051149;28;20429;-72
2023/12/03 04:58:30;;;;;;;;;;;-3276.60;78.20;;;;;;5050055;28;19925;-72
2023/12/03 05:01:03;;;;;;;;;;;-3276.50;78.20;;;;;;5047721;28;20733;-71
2023/12/03 05:03:36;;;;;;;;;;;-3276.60;78.30;;;;;;5052386;28;19968;-73
2023/12/03 05:06:09;;;;;;;;;;;-3276.60;78.20;;;;;;5049823;28;20016;-73
2023/12/03 05:08:42;;;;;;;;;;;-3276.50;78.40;;;;;;5052312;28;20554;-72
2023/12/03 05:11:18;;;;;;;;;;;-3276.60;78.40;;;;;;5051675;28;19933;-77
2023/12/03 05:13:53;;;;;;;;;;;-3276.60;78.30;;;;;;5044241;28;19929;-79
2023/12/03 05:16:26;;;;;;;;;;;-3276.50;78.40;;;;;;5048257;28;19924;-79
2023/12/03 05:18:53;;;;;;;;;;;-3276.60;78.40;;;;;;5051881;28;19928;-76
2023/12/03 05:21:26;;;;;;;;;;;-3276.60;78.20;;;;;;5052750;28;19931;-79
2023/12/03 05:23:59;;;;;;;;;;;-3276.50;78.30;;;;;;5050737;28;19929;-80
2023/12/03 05:26:32;;;;;;;;;;;-3276.50;78.50;;;;;;5052395;28;19936;-78
2023/12/03 05:29:07;;;;;;;;;;;-3276.50;78.40;;;;;;5051939;28;19925;-79
2023/12/03 05:31:44;;;;;;;;;;;-3276.40;78.40;;;;;;5052105;28;19928;-78
2023/12/03 05:34:17;;;;;;;;;;;-3276.50;78.30;;;;;;5052455;28;20018;-77
2023/12/03 05:36:51;;;;;;;;;;;-3276.40;78.30;;;;;;5051634;28;19963;-79
2023/12/03 05:39:24;;;;;;;;;;;-3276.40;78.30;;;;;;5049385;28;19968;-79
2023/12/03 05:41:57;;;;;;;;;;;-3276.40;78.40;;;;;;5050375;28;19931;-79
2023/12/03 05:44:32;;;;;;;;;;;-3276.40;78.40;;;;;;5050765;28;19932;-79
2023/12/03 05:47:05;;;;;;;;;;;-3276.40;78.10;;;;;;5048112;28;20006;-79
2023/12/03 05:49:38;;;;;;;;;;;-3276.40;78.20;;;;;;5052751;28;19924;-78
2023/12/03 05:52:12;;;;;;;;;;;-3276.50;78.20;;;;;;5051156;28;20009;-78
2023/12/03 05:54:45;;;;;;;;;;;-3276.50;78.30;;;;;;5052475;28;19925;-78
2023/12/03 05:57:18;;;;;;;;;;;-3276.40;78.20;;;;;;5049716;28;20007;-79
2023/12/03 05:59:53;;;;;;;;;;;-3276.50;78.20;;;;;;5048582;28;19939;-79
2023/12/03 06:02:26;;;;;;;;;;;-3276.50;78.30;;;;;;5048342;28;19943;-78
2023/12/03 06:04:59;;;;;;;;;;;-3276.40;78.20;;;;;;5050509;28;19933;-79
2023/12/03 06:07:32;;;;;;;;;;;-3276.40;78.40;;;;;;5052297;28;20021;-79
2023/12/03 06:10:06;;;;;;;;;;;-3276.40;78.40;;;;;;5051284;28;19931;-78
2023/12/03 06:12:40;;;;;;;;;;;-3276.50;78.30;;;;;;5050682;28;19929;-78
2023/12/03 06:15:15;;;;;;;;;;;-3276.50;78.30;;;;;;5050092;28;19935;-79
2023/12/03 06:17:48;;;;;;;;;;;-3276.50;78.40;;;;;;5049585;28;19948;-79
2023/12/03 06:20:21;;;;;;;;;;;-3276.50;78.50;;;;;;5048070;28;19968;-78
2023/12/03 06:22:55;;;;;;;;;;;-3276.40;78.40;;;;;;5049548;28;19935;-65
2023/12/03 06:25:28;;;;;;;;;;;-3276.40;78.80;;;;;;5046133;28;20018;-65
2023/12/03 06:28:04;;;;;;;;;;;-3276.50;78.60;;;;;;5050599;28;19933;-64
2023/12/03 06:30:39;;;;;;;;;;;-3276.40;78.40;;;;;;5047331;28;20410;-65
2023/12/03 06:33:13;;;;;;;;;;;-3276.50;78.50;;;;;;5049974;28;20287;-65
2023/12/03 06:35:45;;;;;;;;;;;-3276.40;78.50;;;;;;5047939;28;20016;-65
2023/12/03 06:38:18;;;;;;;;;;;-3276.40;78.50;;;;;;5048181;28;20007;-64
2023/12/03 06:40:51;;;;;;;;;;;-3276.40;78.60;;;;;;5047597;28;21998;-65
2023/12/03 06:43:24;;;;;;;;;;;-3276.40;78.50;;;;;;5046425;28;20023;-64
2023/12/03 06:46:02;;;;;;;;;;;-3276.40;78.70;;;;;;5049922;28;19939;-65
2023/12/03 06:48:35;;;;;;;;;;;-3276.40;78.90;;;;;;5050772;28;19931;-65
2023/12/03 06:51:09;;;;;;;;;;;-3276.40;78.90;;;;;;5048993;28;19967;-63
2023/12/03 06:53:43;;;;;;;;;;;-3276.40;79.00;;;;;;5049527;28;20023;-65
2023/12/03 06:56:16;;;;;;;;;;;-3276.30;78.80;;;;;;5049695;28;20002;-64
2023/12/03 06:58:49;;;;;;;;;;;-3276.40;78.90;;;;;;5047054;28;19935;-65
2023/12/03 07:01:24;;;;;;;;;;;-3276.40;78.90;;;;;;5048802;28;19935;-64
2023/12/03 07:03:56;;;;;;;;;;;-3276.30;78.80;;;;;;5047294;28;19933;-64
2023/12/03 07:06:29;;;;;;;;;;;-3276.40;79.00;;;;;;5048718;28;20025;-64
2023/12/03 07:09:02;;;;;;;;;;;-3276.30;78.90;;;;;;5048618;28;19932;-65
2023/12/03 07:11:35;;;;;;;;;;;-3276.30;78.90;;;;;;5049540;28;19929;-65
2023/12/03 07:14:09;;;;;;;;;;;-3276.20;78.90;;;;;;5048960;28;20578;-65
2023/12/03 07:16:43;;;;;;;;;;;-3276.30;78.90;;;;;;5046559;28;20399;-64
2023/12/03 07:19:16;;;;;;;;;;;-3276.30;79.10;;;;;;5049360;28;19924;-65
2023/12/03 07:21:49;;;;;;;;;;;-3276.30;79.00;;;;;;5049660;28;19925;-64
2023/12/03 07:24:23;;;;;;;;;;;-3276.30;79.00;;;;;;5045268;28;19947;-64
2023/12/03 07:26:55;;;;;;;;;;;-3276.30;79.00;;;;;;5047391;28;19947;-64
2023/12/03 07:29:28;;;;;;;;;;;-3276.30;79.10;;;;;;5049982;28;19955;-65
2023/12/03 07:32:03;;;;;;;;;;;-3276.30;79.10;;;;;;5046100;28;19974;-65
2023/12/03 07:34:36;;;;;;;;;;;-3276.30;79.20;;;;;;5049709;28;20363;-65
2023/12/03 07:37:09;;;;;;;;;;;-3276.30;79.30;;;;;;5047858;28;20363;-67
2023/12/03 07:39:42;;;;;;;;;;;-3276.40;79.40;;;;;;5048954;28;19967;-66
2023/12/03 07:42:15;;;;;;;;;;;-3276.30;79.30;;;;;;5047544;28;19936;-67
2023/12/03 07:44:51;;;;;;;;;;;-3276.30;79.30;;;;;;5045855;28;19925;-65
2023/12/03 07:47:26;;;;;;;;;;;-3276.30;79.40;;;;;;5048236;28;19928;-66
2023/12/03 07:50:00;;;;;;;;;;;-3276.30;79.40;;;;;;5048693;28;19929;-67
2023/12/03 07:52:32;;;;;;;;;;;-3276.30;79.20;;;;;;5046214;28;19933;-66
2023/12/03 07:54:59;;;;;;;;;;;-3276.30;79.30;;;;;;5047165;28;19928;-67
2023/12/03 07:57:32;;;;;;;;;;;-3276.30;79.20;;;;;;5049004;28;19932;-68
2023/12/03 08:00:06;;;;;;;;;;;-3276.30;79.30;;;;;;5048185;28;19929;-67
2023/12/03 08:02:42;;;;;;;;;;;-3276.30;79.60;;;;;;5045958;28;19925;-67
2023/12/03 08:05:15;;;;;;;;;;;-3276.30;79.30;;;;;;5048195;28;20306;-66
2023/12/03 08:07:48;;;;;;;;;;;-3276.30;79.40;;;;;;5045945;28;20281;-67
2023/12/03 08:10:21;;;;;;;;;;;-3276.40;79.40;;;;;;5047983;28;19925;-67
2023/12/03 08:12:54;;;;;;;;;;;-3276.30;79.60;;;;;;5030969;28;19955;-67
2023/12/03 08:15:27;;;;;;;;;;;-3276.30;79.50;;;;;;5048758;28;19931;-67
2023/12/03 08:18:03;;;;;;;;;;;-3276.30;79.50;;;;;;5043157;28;19932;-66
2023/12/03 08:20:35;;;;;;;;;;;-3276.20;79.60;;;;;;5039060;28;19929;-66
2023/12/03 08:23:08;;;;;;;;;;;-3276.30;79.60;;;;;;5045778;28;19928;-67
2023/12/03 08:25:41;;;;;;;;;;;-3276.30;79.70;;;;;;5046291;28;20020;-67
2023/12/03 08:28:21;;;;;;;;;;;-3276.40;79.70;;;;;;5048644;28;20022;-68
2023/12/03 08:30:54;;;;;;;;;;;-3276.40;79.50;;;;;;5047522;28;19929;-67
2023/12/03 08:33:29;;;;;;;;;;;-3276.30;79.70;;;;;;5047308;28;19939;-66
2023/12/03 08:36:02;;;;;;;;;;;-3276.40;79.70;;;;;;5048162;28;19951;-66
2023/12/03 08:38:35;;;;;;;;;;;-3276.40;79.60;;;;;;5047235;28;19968;-67
2023/12/03 08:41:08;;;;;;;;;;;-3276.40;79.60;;;;;;5048024;28;20421;-67
2023/12/03 08:43:41;;;;;;;;;;;-3276.40;79.60;;;;;;5049173;28;19929;-66
2023/12/03 08:46:14;;;;;;;;;;;-3276.50;79.50;;;;;;5043613;28;19929;-66
2023/12/03 08:48:49;;;;;;;;;;;-3276.40;79.50;;;;;;5048114;28;19998;-67
2023/12/03 08:51:22;;;;;;;;;;;-3276.50;79.50;;;;;;5047615;28;19925;-67
2023/12/03 08:53:56;;;;;;;;;;;-3276.60;79.50;;;;;;5030696;28;19932;-66
2023/12/03 08:56:29;;;;;;;;;;;-3276.50;79.50;;;;;;5047257;28;20536;-67
2023/12/03 08:59:02;;;;;;;;;;;-3276.60;79.40;;;;;;5046514;28;20002;-66
2023/12/03 09:01:39;;;;;;;;;;;-3276.60;79.40;;;;;;5045717;28;19924;-67
2023/12/03 09:04:14;;;;;;;;;;;-3276.60;79.40;;;;;;5047276;28;19933;-66
2023/12/03 09:06:47;;;;;;;;;;;-3276.60;79.40;;;;;;5044960;28;19925;-67
2023/12/03 09:09:20;;;;;;;;;;;-3276.70;79.30;;;;;;5046932;28;19924;-67
2023/12/03 09:11:53;;;;;;;;;;;-3276.70;79.30;;;;;;5041856;28;19979;-67
2023/12/03 09:14:27;;;;;;;;;;;-3276.60;79.20;;;;;;5052457;28;19929;-67
2023/12/03 09:17:00;;;;;;;;;;;-3276.60;79.20;;;;;;5050826;28;19983;-67
2023/12/03 09:19:35;;;;;;;;;;;-3276.60;79.20;;;;;;5052699;28;19929;-66
2023/12/03 09:22:08;;;;;;;;;;;-3276.60;79.30;;;;;;5049553;28;19924;-67
2023/12/03 09:24:42;;;;;;;;;;;-3276.70;79.30;;;;;;5047760;28;20359;-67
2023/12/03 09:27:08;;;;;;;;;;;-3276.70;79.30;;;;;;5051067;28;19998;-67
2023/12/03 09:29:42;;;;;;;;;;;0.00;79.30;;;;;;5051588;28;19924;-66
2023/12/03 09:32:15;;;;;;;;;;;0.00;79.20;;;;;;5046102;28;19964;-67
2023/12/03 09:34:50;;;;;;;;;;;0.00;79.20;;;;;;5051508;28;19928;-67
2023/12/03 09:37:23;;;;;;;;;;;0.00;79.00;;;;;;5047180;28;20275;-65
2023/12/03 09:39:57;;;;;;;;;;;0.10;78.90;;;;;;5049982;28;20029;-66
2023/12/03 09:42:30;;;;;;;;;;;0.10;78.60;;;;;;5049911;28;19925;-65
2023/12/03 09:45:07;;;;;;;;;;;0.10;78.60;;;;;;5050382;28;19982;-67
2023/12/03 09:47:43;;;;;;;;;;;0.10;78.60;;;;;;5048271;28;19925;-67
2023/12/03 09:50:18;;;;;;;;;;;0.20;78.60;;;;;;5050232;28;20403;-65
2023/12/03 09:52:53;;;;;;;;;;;0.10;78.60;;;;;;5050039;28;19939;-64
2023/12/03 09:55:28;;;;;;;;;;;0.20;78.60;;;;;;5051111;28;19932;-65
2023/12/03 09:58:02;;;;;;;;;;;0.20;78.50;;;;;;5046428;28;19940;-64
2023/12/03 10:00:37;;;;;;;;;;;0.20;78.70;;;;;;5051431;28;19936;-64
2023/12/03 10:03:11;;;;;;;;;;;0.20;78.40;;;;;;5050276;28;20002;-65
2023/12/03 10:05:46;;;;;;;;;;;0.20;78.40;;;;;;5051467;28;19972;-65
2023/12/03 10:08:21;;;;;;;;;;;0.30;78.40;;;;;;5053048;28;19924;-64
2023/12/03 10:10:58;;;;;;;;;;;0.30;78.40;;;;;;5051041;28;19928;-65
2023/12/03 10:13:34;;;;;;;;;;;0.30;78.20;;;;;;5049741;28;19929;-64
2023/12/03 10:16:08;;;;;;;;;;;0.40;78.30;;;;;;5049902;28;19929;-65
2023/12/03 10:18:41;;;;;;;;;;;0.40;77.80;;;;;;5050474;28;19950;-64
2023/12/03 10:21:16;;;;;;;;;;;0.50;77.90;;;;;;5046991;28;19929;-64
2023/12/03 10:23:56;;;;;;;;;;;0.60;77.80;;;;;;5047526;28;20286;-63
2023/12/03 10:26:30;;;;;;;;;;;0.70;77.70;;;;;;5049405;28;19924;-64
2023/12/03 10:29:02;;;;;;;;;;;0.70;77.50;;;;;;5049438;28;19932;-64
2023/12/03 10:31:36;;;;;;;;;;;0.60;77.50;;;;;;5049591;28;19934;-64
2023/12/03 10:34:10;;;;;;;;;;;0.70;77.60;;;;;;5049004;28;20002;-64
2023/12/03 10:36:45;;;;;;;;;;;0.70;77.40;;;;;;5045116;28;19932;-65
2023/12/03 10:39:19;;;;;;;;;;;0.70;77.50;;;;;;5046226;28;19929;-64
2023/12/03 10:41:52;;;;;;;;;;;0.70;77.40;;;;;;5049455;28;19932;-66
2023/12/03 10:44:28;;;;;;;;;;;0.80;77.30;;;;;;5051207;28;19940;-64
2023/12/03 10:47:00;;;;;;;;;;;0.80;77.30;;;;;;5026447;28;20756;-64
2023/12/03 10:49:34;;;;;;;;;;;0.80;77.00;;;;;;5047800;28;19936;-64
2023/12/03 10:52:09;;;;;;;;;;;0.90;76.90;;;;;;5048429;28;19929;-64
2023/12/03 10:54:49;;;;;;;;;;;0.80;76.70;;;;;;5049821;28;19925;-64
2023/12/03 10:57:24;;;;;;;;;;;0.90;76.90;;;;;;5048852;28;20276;-64
2023/12/03 11:00:03;;;;;;;;;;;1.00;76.50;;;;;;5031896;28;20334;-65
2023/12/03 11:02:39;;;;;;;;;;;0.80;76.60;;;;;;5049727;28;19982;-78
2023/12/03 11:05:22;;;;;;;;;;;1.00;76.50;;;;;;5043976;28;20432;-79
2023/12/03 11:07:57;;;;;;;;;;;1.00;76.50;;;;;;5050001;28;20044;-79
2023/12/03 11:10:33;;;;;;;;;;;1.10;76.40;;;;;;5050447;28;19964;-78
2023/12/03 11:13:08;;;;;;;;;;;1.20;76.20;;;;;;5048545;28;19928;-78
2023/12/03 11:15:42;;;;;;;;;;;1.20;76.30;;;;;;5048459;28;19925;-78
2023/12/03 11:18:17;;;;;;;;;;;1.10;76.20;;;;;;5048116;28;19940;-78
2023/12/03 11:20:51;;;;;;;;;;;1.10;76.40;;;;;;5049265;28;20036;-79
2023/12/03 11:23:33;;;;;;;;;;;1.20;76.20;;;;;;5047886;28;20006;-78
2023/12/03 11:26:09;;;;;;;;;;;1.20;76.30;;;;;;5048971;28;20009;-78
2023/12/03 11:28:52;;;;;;;;;;;1.20;76.30;;;;;;5050220;28;19925;-78
2023/12/03 11:31:26;;;;;;;;;;;1.10;76.00;;;;;;5046621;28;19959;-81
2023/12/03 11:34:00;;;;;;;;;;;1.20;76.20;;;;;;5047469;28;20759;-79
2023/12/03 11:36:37;;;;;;;;;;;1.20;76.20;;;;;;5041310;28;20350;-78
2023/12/03 11:39:12;;;;;;;;;;;1.20;76.30;;;;;;5049412;28;20013;-79
2023/12/03 11:41:46;;;;;;;;;;;1.30;76.20;;;;;;5049156;28;19940;-77
2023/12/03 11:44:19;;;;;;;;;;;1.30;76.00;;;;;;5049680;28;20402;-80
2023/12/03 11:47:01;;;;;;;;;;;1.20;75.90;;;;;;5040384;28;19983;-79
2023/12/03 11:49:35;;;;;;;;;;;1.30;75.90;;;;;;5047071;28;19928;-79
2023/12/03 11:52:09;;;;;;;;;;;1.30;76.00;;;;;;5049444;28;19924;-79
2023/12/03 11:54:50;;;;;;;;;;;1.40;75.80;;;;;;5049849;28;19925;-79
2023/12/03 11:57:24;;;;;;;;;;;1.40;75.80;;;;;;5048334;28;20402;-78
2023/12/03 12:00:01;;;;;;;;;;;1.50;75.70;;;;;;5048176;28;20414;-80
2023/12/03 12:02:39;;;;;;;;;;;1.50;75.70;;;;;;5047882;28;19925;-80
2023/12/03 12:05:11;;;;;;;;;;;1.60;75.50;;;;;;5048235;28;19925;-79
2023/12/03 12:07:55;;;;;;;;;;;1.70;75.30;;;;;;5050289;28;19925;-78
2023/12/03 12:10:31;;;;;;;;;;;1.60;75.00;;;;;;5049427;28;20474;-78
2023/12/03 12:13:05;;;;;;;;;;;1.40;75.30;;;;;;5047966;28;19929;-79
2023/12/03 12:15:38;;;;;;;;;;;1.40;75.80;;;;;;5048858;28;19940;-77
2023/12/03 12:18:10;;;;;;;;;;;1.50;75.50;;;;;;5047606;28;19935;-79
2023/12/03 12:20:43;;;;;;;;;;;1.60;75.20;;;;;;5021568;28;20379;-77
2023/12/03 12:23:16;;;;;;;;;;;1.60;75.00;;;;;;5042797;28;19929;-78
2023/12/03 12:25:53;;;;;;;;;;;1.50;75.10;;;;;;5021035;28;20478;-77
2023/12/03 12:28:26;;;;;;;;;;;1.60;74.90;;;;;;5048793;28;20040;-79
2023/12/03 12:30:58;;;;;;;;;;;1.60;75.10;;;;;;5043972;28;20006;-79
2023/12/03 12:33:32;;;;;;;;;;;1.50;75.20;;;;;;5046185;28;19935;-78
2023/12/03 12:36:08;;;;;;;;;;;1.40;75.40;;;;;;5047665;28;19932;-79
2023/12/03 12:38:42;;;;;;;;;;;1.40;75.30;;;;;;5044047;28;19934;-79
2023/12/03 12:41:16;;;;;;;;;;;1.40;75.70;;;;;;5048065;28;19929;-77
2023/12/03 12:43:53;;;;;;;;;;;1.40;75.60;;;;;;5044297;28;20850;-77
2023/12/03 12:46:28;;;;;;;;;;;1.40;75.80;;;;;;5047768;28;19929;-80
2023/12/03 12:49:14;;;;;;;;;;;1.50;75.60;;;;;;5050511;28;19932;-79
2023/12/03 12:51:47;;;;;;;;;;;1.50;75.40;;;;;;5048898;28;19933;-79
2023/12/03 12:54:20;;;;;;;;;;;1.50;75.50;;;;;;5048483;28;19935;-79
2023/12/03 12:56:55;;;;;;;;;;;1.50;75.40;;;;;;5051582;28;19928;-77
2023/12/03 12:59:29;;;;;;;;;;;1.40;75.80;;;;;;5052652;28;19924;-80
2023/12/03 13:02:02;;;;;;;;;;;1.40;75.70;;;;;;5051502;28;20292;-78
2023/12/03 13:04:35;;;;;;;;;;;1.40;75.90;;;;;;5049442;28;19924;-77
2023/12/03 13:07:08;;;;;;;;;;;1.40;75.90;;;;;;5049059;28;19940;-78
2023/12/03 13:09:41;;;;;;;;;;;1.30;75.70;;;;;;5052808;28;19931;-78
2023/12/03 13:12:16;;;;;;;;;;;1.40;76.00;;;;;;5050417;28;19991;-77
2023/12/03 13:14:49;;;;;;;;;;;1.30;75.80;;;;;;5050806;28;20047;-78
2023/12/03 13:17:23;;;;;;;;;;;1.30;75.90;;;;;;5052370;28;19924;-79
2023/12/03 13:19:55;;;;;;;;;;;1.40;75.90;;;;;;5050113;28;19932;-78
2023/12/03 13:22:28;;;;;;;;;;;1.40;75.80;;;;;;5048191;28;19933;-62
2023/12/03 13:25:02;;;;;;;;;;;1.40;75.70;;;;;;5048684;28;19935;-63
2023/12/03 13:27:36;;;;;;;;;;;1.40;75.90;;;;;;5049656;28;19925;-64
2023/12/03 13:30:10;;;;;;;;;;;1.50;76.00;;;;;;5050213;28;19928;-61
2023/12/03 13:32:43;;;;;;;;;;;1.50;76.10;;;;;;5048390;28;19924;-62
2023/12/03 13:35:17;;;;;;;;;;;1.50;75.80;;;;;;5048458;28;19925;-62
2023/12/03 13:37:51;;;;;;;;;;;1.50;75.90;;;;;;5047429;28;19936;-62
2023/12/03 13:40:24;;;;;;;;;;;1.50;75.50;;;;;;5048684;28;19928;-62
2023/12/03 13:42:52;;;;;;;;;;;1.40;75.60;;;;;;5047706;28;19929;-61
2023/12/03 13:45:26;;;;;;;;;;;1.40;75.90;;;;;;5041291;28;20395;-62
2023/12/03 13:47:59;;;;;;;;;;;1.30;75.70;;;;;;5045545;28;20287;-62
2023/12/03 13:50:34;;;;;;;;;;;1.30;76.20;;;;;;5047676;28;19925;-62
2023/12/03 13:53:07;;;;;;;;;;;1.40;76.20;;;;;;5046877;28;20031;-61
2023/12/03 13:55:40;;;;;;;;;;;1.50;76.00;;;;;;5047579;28;19933;-62
2023/12/03 13:58:08;;;;;;;;;;;1.50;75.90;;;;;;5049837;28;19925;-62
2023/12/03 14:00:40;;;;;;;;;;;1.50;76.00;;;;;;5047940;28;19924;-62
2023/12/03 14:03:14;;;;;;;;;;;1.40;76.00;;;;;;5049606;28;19973;-62
2023/12/03 14:05:47;;;;;;;;;;;1.50;76.20;;;;;;5050541;28;19928;-65
2023/12/03 14:08:26;;;;;;;;;;;1.50;76.00;;;;;;5050459;28;19931;-63
2023/12/03 14:11:00;;;;;;;;;;;1.60;75.90;;;;;;5050006;28;20010;-63
2023/12/03 14:13:35;;;;;;;;;;;1.60;75.80;;;;;;5047360;28;19928;-63
2023/12/03 14:16:08;;;;;;;;;;;1.50;75.70;;;;;;5040829;28;19971;-62
2023/12/03 14:18:42;;;;;;;;;;;1.50;75.60;;;;;;5045930;28;19957;-62
2023/12/03 14:21:16;;;;;;;;;;;1.50;76.00;;;;;;5047864;28;19974;-64
2023/12/03 14:23:49;;;;;;;;;;;1.50;75.90;;;;;;5047826;28;20395;-63
2023/12/03 14:26:23;;;;;;;;;;;1.50;76.30;;;;;;5047168;28;19932;-63
2023/12/03 14:28:58;;;;;;;;;;;1.50;76.20;;;;;;5046372;28;19971;-65
2023/12/03 14:31:31;;;;;;;;;;;1.50;76.10;;;;;;5048276;28;20298;-78
2023/12/03 14:34:05;;;;;;;;;;;1.50;76.20;;;;;;5047017;28;19935;-79
2023/12/03 14:36:38;;;;;;;;;;;1.50;76.00;;;;;;5042273;28;19954;-79
2023/12/03 14:39:11;;;;;;;;;;;1.40;76.30;;;;;;5049058;28;19928;-79
2023/12/03 14:41:45;;;;;;;;;;;1.40;76.40;;;;;;5049649;28;19924;-80